createdAt,value
2023-04-26T00:01:52.414Z,4.35
2023-04-26T00:04:22.566Z,4.70
2023-04-26T00:06:53.067Z,4.63
2023-04-26T00:09:23.893Z,3.80
2023-04-26T00:11:53.979Z,3.80
2023-04-26T00:14:24.191Z,3.45
2023-04-26T00:19:25.629Z,1.35
2023-04-26T00:21:55.637Z,1.60
2023-04-26T00:24:25.709Z,2.15
2023-04-26T00:26:57.133Z,1.60
2023-04-26T00:29:28.345Z,1.33
2023-04-26T00:31:59.273Z,1.20
2023-04-26T00:34:38.948Z,1.60
2023-04-26T00:37:09.279Z,1.10
2023-04-26T00:39:39.338Z,1.35
2023-04-26T00:42:09.440Z,1.50
2023-04-26T00:44:41.452Z,1.15
2023-04-26T00:47:11.540Z,0.90
2023-04-26T00:49:42.038Z,1.02
2023-04-26T00:52:12.310Z,0.50
2023-04-26T00:57:13.854Z,0.80
2023-04-26T00:59:47.230Z,0.90
2023-04-26T01:02:19.956Z,1.02
2023-04-26T01:04:51.650Z,0.98
2023-04-26T01:07:22.274Z,0.80
2023-04-26T01:09:53.723Z,0.82
2023-04-26T01:12:25.568Z,0.88
2023-04-26T01:14:56.167Z,0.40
2023-04-26T01:17:27.122Z,0.85
2023-04-26T01:19:59.656Z,0.60
2023-04-26T01:25:01.119Z,0.80
2023-04-26T01:27:31.277Z,0.90
2023-04-26T01:30:01.248Z,0.32
2023-04-26T01:32:33.728Z,0.50
2023-04-26T01:35:04.058Z,0.60
2023-04-26T01:37:33.934Z,0.30
2023-04-26T01:40:04.026Z,0.28
2023-04-26T01:42:34.333Z,0.50
2023-04-26T01:45:04.921Z,0.40
2023-04-26T01:47:54.969Z,0.40
2023-04-26T01:50:26.100Z,0.40
2023-04-26T01:52:56.207Z,1.95
2023-04-26T01:55:26.206Z,4.00
2023-04-26T01:57:56.379Z,4.38
2023-04-26T02:02:59.236Z,2.88
2023-04-26T02:05:29.464Z,2.75
2023-04-26T02:10:29.106Z,1.52
2023-04-26T02:12:59.165Z,1.80
2023-04-26T02:15:29.341Z,1.60
2023-04-26T02:17:59.431Z,1.50
2023-04-26T02:20:29.596Z,1.50
2023-04-26T02:22:59.646Z,2.00
2023-04-26T02:25:29.806Z,2.30
2023-04-26T02:27:59.587Z,2.28
2023-04-26T02:30:31.377Z,2.00
2023-04-26T02:33:01.735Z,2.58
2023-04-26T02:35:32.434Z,2.80
2023-04-26T02:40:32.098Z,1.85
2023-04-26T02:43:02.794Z,1.60
2023-04-26T02:48:02.482Z,1.63
2023-04-26T02:50:32.688Z,1.73
2023-04-26T02:53:02.955Z,1.10
2023-04-26T02:58:02.332Z,0.50
2023-04-26T03:00:32.459Z,0.88
2023-04-26T03:03:04.028Z,1.02
2023-04-26T03:05:34.239Z,0.77
2023-04-26T03:08:04.854Z,0.80
2023-04-26T03:10:35.410Z,1.00
2023-04-26T03:13:07.034Z,1.15
2023-04-26T03:15:37.231Z,1.15
2023-04-26T03:18:07.465Z,1.23
2023-04-26T03:23:07.706Z,1.25
2023-04-26T03:25:37.944Z,1.00
2023-04-26T03:28:08.386Z,0.90
2023-04-26T03:30:39.082Z,0.68
2023-04-26T03:33:10.738Z,0.85
2023-04-26T03:35:41.096Z,0.95
2023-04-26T03:38:11.148Z,0.77
2023-04-26T03:40:41.205Z,0.73
2023-04-26T03:43:11.398Z,0.80
2023-04-26T03:45:41.476Z,0.73
2023-04-26T03:48:11.608Z,0.65
2023-04-26T03:50:41.932Z,0.90
2023-04-26T03:53:12.891Z,0.90
2023-04-26T03:55:43.960Z,1.10
2023-04-26T03:58:14.004Z,1.00
2023-04-26T04:00:45.239Z,1.13
2023-04-26T04:03:15.352Z,1.30
2023-04-26T04:05:46.099Z,1.00
2023-04-26T04:08:16.832Z,0.90
2023-04-26T04:10:47.104Z,1.10
2023-04-26T04:15:46.515Z,0.80
2023-04-26T04:18:16.669Z,1.45
2023-04-26T04:20:47.677Z,1.02
2023-04-26T04:23:18.329Z,0.88
2023-04-26T04:25:49.881Z,0.82
2023-04-26T04:28:20.438Z,0.80
2023-04-26T04:30:51.116Z,1.20
2023-04-26T04:33:21.372Z,0.82
2023-04-26T04:35:51.395Z,1.20
2023-04-26T04:38:21.543Z,1.35
2023-04-26T04:43:22.607Z,0.98
2023-04-26T04:45:53.389Z,1.25
2023-04-26T04:48:23.539Z,0.93
2023-04-26T04:50:53.932Z,1.02
2023-04-26T04:53:24.261Z,0.77
2023-04-26T04:55:54.093Z,0.95
2023-04-26T04:58:24.427Z,1.10
2023-04-26T05:00:58.020Z,0.82
2023-04-26T05:03:35.064Z,1.08
2023-04-26T05:06:06.925Z,1.02
2023-04-26T05:08:37.630Z,0.98
2023-04-26T05:11:10.562Z,0.88
2023-04-26T05:13:40.747Z,1.00
2023-04-26T05:16:10.600Z,1.13
2023-04-26T05:18:41.053Z,1.02
2023-04-26T05:21:11.850Z,0.73
2023-04-26T05:23:42.864Z,0.60
2023-04-26T05:29:15.788Z,0.98
2023-04-26T05:32:00.717Z,0.77
2023-04-26T05:34:43.349Z,1.05
2023-04-26T05:37:18.419Z,0.60
2023-04-26T05:39:48.550Z,0.63
2023-04-26T05:42:18.807Z,0.95
2023-04-26T05:44:49.606Z,0.40
2023-04-26T05:47:20.189Z,0.80
2023-04-26T05:49:50.260Z,0.82
2023-04-26T05:52:20.355Z,0.57
2023-04-26T05:54:51.464Z,1.27
2023-04-26T05:57:21.676Z,0.93
2023-04-26T05:59:51.878Z,0.90
2023-04-26T06:02:22.025Z,1.30
2023-04-26T06:04:52.875Z,0.90
2023-04-26T06:07:42.743Z,1.10
2023-04-26T06:10:14.230Z,1.23
2023-04-26T06:12:44.795Z,1.30
2023-04-26T06:15:15.184Z,1.70
2023-04-26T06:17:45.219Z,1.70
2023-04-26T06:20:15.415Z,2.08
2023-04-26T06:22:45.864Z,2.15
2023-04-26T06:25:16.529Z,2.15
2023-04-26T06:27:46.639Z,1.98
2023-04-26T06:30:17.510Z,2.10
2023-04-26T06:32:50.013Z,1.85
2023-04-26T06:35:20.085Z,2.00
2023-04-26T06:37:50.231Z,1.80
2023-04-26T06:40:20.939Z,1.60
2023-04-26T06:42:51.082Z,1.98
2023-04-26T06:45:39.707Z,1.90
2023-04-26T06:48:11.129Z,2.47
2023-04-26T06:50:41.322Z,2.55
2023-04-26T06:53:11.372Z,2.13
2023-04-26T06:55:41.503Z,2.30
2023-04-26T06:58:11.722Z,2.53
2023-04-26T07:00:41.862Z,2.83
2023-04-26T07:03:12.071Z,2.53
2023-04-26T07:05:42.360Z,2.58
2023-04-26T07:10:43.574Z,2.47
2023-04-26T07:13:13.616Z,3.33
2023-04-26T07:15:43.676Z,4.30
2023-04-26T07:18:13.549Z,3.63
2023-04-26T07:20:44.008Z,3.60
2023-04-26T07:23:15.227Z,4.75
2023-04-26T07:25:45.277Z,5.25
2023-04-26T07:28:15.920Z,3.65
2023-04-26T07:30:46.087Z,3.35
2023-04-26T07:33:16.172Z,3.20
2023-04-26T07:35:46.308Z,2.10
2023-04-26T07:38:20.716Z,2.90
2023-04-26T07:40:51.649Z,2.33
2023-04-26T07:43:22.579Z,2.88
2023-04-26T07:45:53.055Z,2.78
2023-04-26T07:48:23.136Z,2.45
2023-04-26T07:50:53.247Z,2.45
2023-04-26T07:53:24.092Z,2.67
2023-04-26T07:55:54.142Z,1.88
2023-04-26T07:58:23.985Z,1.83
2023-04-26T08:00:54.010Z,1.98
2023-04-26T08:03:24.273Z,1.45
2023-04-26T08:05:55.307Z,2.00
2023-04-26T08:08:25.441Z,2.30
2023-04-26T08:10:56.889Z,1.50
2023-04-26T08:13:29.182Z,1.73
2023-04-26T08:15:59.586Z,2.15
2023-04-26T08:18:29.829Z,2.00
2023-04-26T08:23:30.103Z,2.25
2023-04-26T08:26:00.121Z,1.55
2023-04-26T08:28:30.253Z,1.90
2023-04-26T08:31:00.389Z,1.60
2023-04-26T08:33:30.804Z,1.65
2023-04-26T08:38:33.389Z,1.50
2023-04-26T08:41:06.572Z,1.73
2023-04-26T08:43:39.113Z,2.15
2023-04-26T08:46:14.009Z,1.90
2023-04-26T08:48:45.267Z,1.38
2023-04-26T08:51:16.886Z,1.95
2023-04-26T08:53:47.354Z,1.92
2023-04-26T08:56:17.388Z,2.03
2023-04-26T08:58:47.619Z,1.70
2023-04-26T09:01:18.876Z,1.77
2023-04-26T09:04:09.495Z,1.45
2023-04-26T09:06:40.125Z,1.50
2023-04-26T09:09:12.419Z,1.60
2023-04-26T09:11:58.908Z,2.53
2023-04-26T09:14:29.331Z,1.45
2023-04-26T09:16:59.466Z,1.58
2023-04-26T09:19:45.405Z,1.63
2023-04-26T09:22:15.520Z,1.63
2023-04-26T09:24:51.364Z,1.98
2023-04-26T09:27:22.346Z,1.88
2023-04-26T09:30:19.641Z,1.58
2023-04-26T09:32:58.466Z,2.22
2023-04-26T09:35:33.331Z,1.60
2023-04-26T09:38:12.249Z,1.83
2023-04-26T09:40:46.752Z,1.60
2023-04-26T09:43:18.697Z,1.83
2023-04-26T09:45:51.553Z,1.30
2023-04-26T09:48:32.505Z,1.55
2023-04-26T09:51:05.563Z,1.25
2023-04-26T09:53:42.451Z,1.40
2023-04-26T09:56:16.815Z,1.60
2023-04-26T09:58:53.494Z,1.40
2023-04-26T10:01:24.526Z,1.13
2023-04-26T10:03:54.951Z,1.10
2023-04-26T10:06:26.398Z,1.35
2023-04-26T10:08:56.760Z,1.35
2023-04-26T10:13:57.052Z,0.75
2023-04-26T10:16:27.365Z,1.83
2023-04-26T10:21:36.588Z,1.88
2023-04-26T10:24:07.073Z,1.17
2023-04-26T10:26:55.591Z,0.90
2023-04-26T10:29:27.093Z,0.85
2023-04-26T10:32:03.184Z,1.17
2023-04-26T10:34:35.194Z,0.77
2023-04-26T10:37:10.339Z,0.93
2023-04-26T10:39:42.201Z,0.73
2023-04-26T10:42:26.517Z,0.80
2023-04-26T10:44:58.553Z,0.47
2023-04-26T10:47:32.761Z,0.50
2023-04-26T10:50:07.404Z,0.30
2023-04-26T10:52:40.032Z,0.68
2023-04-26T10:55:11.508Z,0.57
2023-04-26T10:57:55.342Z,0.57
2023-04-26T11:00:31.774Z,0.90
2023-04-26T11:03:08.065Z,0.80
2023-04-26T11:05:42.204Z,0.77
2023-04-26T11:08:19.335Z,0.68
2023-04-26T11:10:54.306Z,0.38
2023-04-26T11:13:24.379Z,0.80
2023-04-26T11:16:04.387Z,0.60
2023-04-26T11:18:35.473Z,0.63
2023-04-26T11:21:07.401Z,1.05
2023-04-26T11:23:37.792Z,0.70
2023-04-26T11:28:40.604Z,0.68
2023-04-26T11:31:10.672Z,0.70
2023-04-26T11:33:42.813Z,0.93
2023-04-26T11:36:13.394Z,0.88
2023-04-26T11:38:43.898Z,0.77
2023-04-26T11:41:13.986Z,0.77
2023-04-26T11:43:44.176Z,0.88
2023-04-26T11:46:14.225Z,0.40
2023-04-26T11:48:44.443Z,0.60
2023-04-26T11:51:14.664Z,0.30
2023-04-26T11:53:45.786Z,0.73
2023-04-26T11:56:20.267Z,0.57
2023-04-26T11:58:54.928Z,0.50
2023-04-26T12:01:27.273Z,0.50
2023-04-26T12:03:59.935Z,1.17
2023-04-26T12:06:47.475Z,1.02
2023-04-26T12:09:18.361Z,0.22
2023-04-26T12:12:00.149Z,0.90
2023-04-26T12:14:41.136Z,0.70
2023-04-26T12:17:11.616Z,0.70
2023-04-26T12:19:42.579Z,0.82
2023-04-26T12:22:12.627Z,0.73
2023-04-26T12:24:44.230Z,0.73
2023-04-26T12:27:23.042Z,0.70
2023-04-26T12:29:53.111Z,0.60
2023-04-26T12:32:23.128Z,0.80
2023-04-26T12:34:53.270Z,0.77
2023-04-26T12:37:23.238Z,0.77
2023-04-26T12:39:53.752Z,0.73
2023-04-26T12:42:23.895Z,0.63
2023-04-26T12:44:53.973Z,0.45
2023-04-26T12:47:23.992Z,0.82
2023-04-26T12:49:54.280Z,0.85
2023-04-26T12:54:53.819Z,0.82
2023-04-26T12:59:53.194Z,1.20
2023-04-26T13:02:23.527Z,1.05
2023-04-26T13:04:53.884Z,1.15
2023-04-26T13:07:24.523Z,1.30
2023-04-26T13:09:54.774Z,0.82
2023-04-26T13:14:54.249Z,0.52
2023-04-26T13:17:26.642Z,0.80
2023-04-26T13:19:56.703Z,0.95
2023-04-26T13:22:26.538Z,0.80
2023-04-26T13:24:56.349Z,1.38
2023-04-26T13:27:28.452Z,1.00
2023-04-26T13:30:00.191Z,1.25
2023-04-26T13:32:30.916Z,1.30
2023-04-26T13:35:00.921Z,1.33
2023-04-26T13:37:30.933Z,1.30
2023-04-26T13:40:01.226Z,1.80
2023-04-26T13:45:01.311Z,2.70
2023-04-26T13:47:31.420Z,2.75
2023-04-26T13:50:01.476Z,3.70
2023-04-26T13:52:31.658Z,3.33
2023-04-26T13:55:01.976Z,3.75
2023-04-26T13:57:33.148Z,4.35
2023-04-26T14:00:03.259Z,4.65
2023-04-26T14:02:41.169Z,5.43
2023-04-26T14:07:42.804Z,4.53
2023-04-26T14:10:13.586Z,4.68
2023-04-26T14:12:43.889Z,4.97
2023-04-26T14:15:14.361Z,5.35
2023-04-26T14:17:44.510Z,4.28
2023-04-26T14:20:14.655Z,4.75
2023-04-26T14:22:44.675Z,4.68
2023-04-26T14:25:14.394Z,5.50
2023-04-26T14:27:44.910Z,4.53
2023-04-26T14:30:15.512Z,4.72
2023-04-26T14:32:46.583Z,4.80
2023-04-26T14:35:16.675Z,4.72
2023-04-26T14:37:47.053Z,4.25
2023-04-26T14:40:17.257Z,4.70
2023-04-26T14:42:47.531Z,3.75
2023-04-26T14:47:47.600Z,4.03
2023-04-26T14:50:17.840Z,4.20
2023-04-26T14:52:48.015Z,3.45
2023-04-26T14:55:23.432Z,3.83
2023-04-26T14:57:53.637Z,3.40
2023-04-26T15:00:24.317Z,2.53
2023-04-26T15:02:57.396Z,3.60
2023-04-26T15:05:27.539Z,3.05
2023-04-26T15:07:58.304Z,3.20
2023-04-26T15:10:28.419Z,2.83
2023-04-26T15:15:28.076Z,2.65
2023-04-26T15:17:58.224Z,3.10
2023-04-26T15:22:57.916Z,1.98
2023-04-26T15:25:28.023Z,2.00
2023-04-26T15:30:28.657Z,1.88
2023-04-26T15:35:28.432Z,1.63
2023-04-26T15:37:58.514Z,1.38
2023-04-26T15:40:28.849Z,1.80
2023-04-26T15:42:59.321Z,1.55
2023-04-26T15:45:29.374Z,1.73
2023-04-26T15:47:59.463Z,1.20
2023-04-26T15:53:01.830Z,1.65
2023-04-26T15:55:34.409Z,1.17
2023-04-26T15:58:04.509Z,0.82
2023-04-26T16:03:05.550Z,1.00
2023-04-26T16:05:35.730Z,1.00
2023-04-26T16:08:06.889Z,0.93
2023-04-26T16:10:38.448Z,0.80
2023-04-26T16:13:09.033Z,0.80
2023-04-26T16:15:39.276Z,0.80
2023-04-26T16:18:09.505Z,1.00
2023-04-26T16:20:39.611Z,0.80
2023-04-26T16:23:09.426Z,0.57
2023-04-26T16:25:39.784Z,0.80
2023-04-26T16:28:12.015Z,0.70
2023-04-26T16:30:42.821Z,0.70
2023-04-26T16:33:13.039Z,0.85
2023-04-26T16:35:43.865Z,0.75
2023-04-26T16:38:14.078Z,0.60
2023-04-26T16:43:15.854Z,1.13
2023-04-26T16:45:46.109Z,0.80
2023-04-26T16:48:16.229Z,0.57
2023-04-26T16:50:46.217Z,1.02
2023-04-26T16:53:16.321Z,0.80
2023-04-26T16:55:46.256Z,0.77
2023-04-26T16:58:16.431Z,0.50
2023-04-26T17:03:16.413Z,0.52
2023-04-26T17:05:50.007Z,0.75
2023-04-26T17:08:21.246Z,0.47
2023-04-26T17:10:52.853Z,0.85
2023-04-26T17:13:22.927Z,0.70
2023-04-26T17:18:22.358Z,0.50
2023-04-26T17:23:24.713Z,1.00
2023-04-26T17:25:55.467Z,0.80
2023-04-26T17:28:25.668Z,0.75
2023-04-26T17:30:55.679Z,0.65
2023-04-26T17:33:27.103Z,0.85
2023-04-26T17:35:57.395Z,0.75
2023-04-26T17:38:28.393Z,0.88
2023-04-26T17:40:58.435Z,0.90
2023-04-26T17:45:58.384Z,0.52
2023-04-26T17:48:30.151Z,0.30
2023-04-26T17:51:00.277Z,0.45
2023-04-26T17:56:18.701Z,0.40
2023-04-26T17:58:49.802Z,0.60
2023-04-26T18:01:21.234Z,0.38
2023-04-26T18:03:51.464Z,0.22
2023-04-26T18:06:22.190Z,0.32
2023-04-26T18:08:52.296Z,0.28
2023-04-26T18:11:23.241Z,0.50
2023-04-26T18:13:53.435Z,0.90
2023-04-26T18:16:23.351Z,0.90
2023-04-26T18:18:53.432Z,0.70
2023-04-26T18:23:52.790Z,0.88
2023-04-26T18:26:22.707Z,0.80
2023-04-26T18:28:52.759Z,0.80
2023-04-26T18:33:53.510Z,0.60
2023-04-26T18:36:23.565Z,0.70
2023-04-26T18:41:24.894Z,0.80
2023-04-26T18:43:55.616Z,0.80
2023-04-26T18:46:25.696Z,0.80
2023-04-26T18:48:56.673Z,0.60
2023-04-26T18:51:27.808Z,0.60
2023-04-26T18:53:58.368Z,0.77
2023-04-26T18:56:29.691Z,0.85
2023-04-26T18:59:00.116Z,0.40
2023-04-26T19:01:30.199Z,0.80
2023-04-26T19:06:30.196Z,0.30
2023-04-26T19:11:35.011Z,0.57
2023-04-26T19:14:11.589Z,0.30
2023-04-26T19:16:41.607Z,0.80
2023-04-26T19:19:12.347Z,0.30
2023-04-26T19:21:42.615Z,0.70
2023-04-26T19:24:12.450Z,0.40
2023-04-26T19:26:43.262Z,0.40
2023-04-26T19:29:13.554Z,0.47
2023-04-26T19:31:44.286Z,0.50
2023-04-26T19:34:14.782Z,0.22
2023-04-26T19:36:44.879Z,0.60
2023-04-26T19:39:15.915Z,0.40
2023-04-26T19:41:46.295Z,0.70
2023-04-26T19:44:16.588Z,0.80
2023-04-26T19:49:15.984Z,0.55
2023-04-26T19:51:46.639Z,0.40
2023-04-26T19:54:18.521Z,0.50
2023-04-26T19:56:48.592Z,0.65
2023-04-26T19:59:18.427Z,0.52
2023-04-26T20:01:48.559Z,0.80
2023-04-26T20:04:19.104Z,0.60
2023-04-26T20:06:49.385Z,0.70
2023-04-26T20:09:19.475Z,0.75
2023-04-26T20:11:50.868Z,0.63
2023-04-26T20:14:20.857Z,0.75
2023-04-26T20:16:51.313Z,1.00
2023-04-26T20:19:21.741Z,0.60
2023-04-26T20:21:51.866Z,0.70
2023-04-26T20:26:53.166Z,0.77
2023-04-26T20:29:23.291Z,0.90
2023-04-26T20:34:22.976Z,0.30
2023-04-26T20:36:53.369Z,0.60
2023-04-26T20:39:23.417Z,0.80
2023-04-26T20:41:53.438Z,0.80
2023-04-26T20:44:23.490Z,0.70
2023-04-26T20:46:53.299Z,0.70
2023-04-26T20:49:23.634Z,0.45
2023-04-26T20:51:54.607Z,0.40
2023-04-26T20:54:25.225Z,0.55
2023-04-26T20:56:55.316Z,0.38
2023-04-26T20:59:28.342Z,0.30
2023-04-26T21:01:58.462Z,0.35
2023-04-26T21:04:28.720Z,0.52
2023-04-26T21:06:58.966Z,0.90
2023-04-26T21:09:29.312Z,0.30
2023-04-26T21:11:59.320Z,0.52
2023-04-26T21:14:29.843Z,0.38
2023-04-26T21:17:01.226Z,0.40
2023-04-26T21:19:31.341Z,1.00
2023-04-26T21:22:01.639Z,0.95
2023-04-26T21:24:31.759Z,0.70
2023-04-26T21:27:01.933Z,0.43
2023-04-26T21:29:35.554Z,0.40
2023-04-26T21:32:05.692Z,0.38
2023-04-26T21:34:35.527Z,0.60
2023-04-26T21:37:05.715Z,0.47
2023-04-26T21:42:05.037Z,0.43
2023-04-26T21:44:35.109Z,0.60
2023-04-26T21:47:05.129Z,0.60
2023-04-26T21:49:35.893Z,0.47
2023-04-26T21:52:06.495Z,0.47
2023-04-26T21:54:38.188Z,0.80
2023-04-26T21:57:08.259Z,0.90
2023-04-26T21:59:38.311Z,0.80
2023-04-26T22:02:09.261Z,0.85
2023-04-26T22:04:39.499Z,0.80
2023-04-26T22:09:38.955Z,0.82
2023-04-26T22:12:09.196Z,0.47
2023-04-26T22:17:08.447Z,0.52
2023-04-26T22:19:39.249Z,1.00
2023-04-26T22:22:09.234Z,0.88
2023-04-26T22:27:09.359Z,0.80
2023-04-26T22:29:39.403Z,0.82
2023-04-26T22:32:09.512Z,0.95
2023-04-26T22:34:40.436Z,0.73
2023-04-26T22:37:20.673Z,0.73
2023-04-26T22:39:53.828Z,1.08
2023-04-26T22:42:23.889Z,1.00
2023-04-26T22:44:53.961Z,1.00
2023-04-26T22:47:24.264Z,1.05
2023-04-26T22:49:54.332Z,0.88
2023-04-26T22:52:31.326Z,0.90
2023-04-26T22:55:02.712Z,0.70
2023-04-26T22:57:33.327Z,0.40
2023-04-26T23:00:03.787Z,0.40
2023-04-26T23:02:34.462Z,0.70
2023-04-26T23:05:06.329Z,0.98
2023-04-26T23:07:36.350Z,0.85
2023-04-26T23:10:07.338Z,1.23
2023-04-26T23:12:38.277Z,1.00
2023-04-26T23:15:08.843Z,0.52
2023-04-26T23:17:39.200Z,1.20
2023-04-26T23:20:16.927Z,1.00
2023-04-26T23:22:49.041Z,0.98
2023-04-26T23:25:21.073Z,0.82
2023-04-26T23:27:51.190Z,0.90
2023-04-26T23:30:21.347Z,1.00
2023-04-26T23:32:51.660Z,0.80
2023-04-26T23:37:53.552Z,0.93
2023-04-26T23:40:25.191Z,0.88
2023-04-26T23:42:55.360Z,0.95
2023-04-26T23:45:25.519Z,1.10
2023-04-26T23:47:55.916Z,1.27
2023-04-26T23:50:45.493Z,1.55
2023-04-26T23:53:15.608Z,2.50
2023-04-26T23:55:45.452Z,2.97
2023-04-26T23:58:15.677Z,3.15
